PAWD

Details ICAO PAWD
Name SEWARD
Region USA (Alaska)
Timezone America/Anchorage (UTC-9.0)
Plans Departing 29
Arriving 34
Stats Elevation 22 ft / 7 m (AMSL)
Location 60.129844° -149.419515°
Runways 2
Magnetic Variation 16.256° E
Sunrise 2017-12-17 18:59:50 UTC / 2017-12-17 09:59:50 Local
Sunset 2017-12-18 00:50:54 UTC / 2017-12-17 15:50:54 Local
Advertisement - Login to hide

Runways

ID Width Length Bearing (true) Bearing (mag) Surface Threshold Offset Overrun Length
12 100 ft / 30 m 4,228 ft / 1,289 m 143.67° 127.41° Asphalt 0 ft / 0 m 0 ft / 0 m
15 75 ft / 23 m 2,280 ft / 695 m 170.13° 153.87° Asphalt 0 ft / 0 m 0 ft / 0 m
30 100 ft / 30 m 4,228 ft / 1,289 m 323.68° 307.42° Asphalt 0 ft / 0 m 0 ft / 0 m
33 75 ft / 23 m 2,280 ft / 695 m 350.13° 333.87° Asphalt 0 ft / 0 m 0 ft / 0 m

Map

Weather


0- 5 10 15 20 25 30 35+ Temperature / ° C

Clouds and Precipitation
Forecast for 2017-12-18 06:00 UTC. Updated 2 hours ago

Ground ~20,000 ft ~40,000 ft Winds

METAR

PAWD 180353Z AUTO 03012G19KT 10SM CLR M01/M03 A2967 RMK AO2 SLP048 T10111033 TSNO

TAF

Not found

Frequencies

Recorded 135.20 MHz ASOS
Unicom 122.90 MHz CTAF
Warning: Do not use this data for real-world aviation or navigation. No guarantee of current accuracy is given.